Edwards Creek Valley, Nevada Weather observations

Data are for observation ending at time listed.
 Day   Time    Ave.   Ave.  Ave.  Vector   Max.   Stn.    Total    Solar   Ave.  
  of    of     Air    Rel.  Wind   Wind    Wind   Baro.  Precip.   Rad.    Soil  
Year   Day     Temp.  Hum.  Speed  Dir.    Gust   Pres.                    Temp. 
2016   (PST)    F      %     mph   deg.    mph     mb.     in.     W/m2     F   
------------------------------------------------------------------------------
 119   16:30   51.0    51   10.0   320     15.5    840     0.00     166     57.1
 119   16:40   51.3    50    8.8   329     14.7    839     0.00     241     57.1
 119   16:50   52.3    48    8.7   316     13.7    840     0.00     358     57.1
 119   17:00   52.5    48    9.6   321     15.6    840     0.00     322     57.0
 119   17:10   50.6    56   10.1   339     17.2    840     0.00      71     57.1
 119   17:20   48.3    67   10.4   348     16.4    840     0.00      55     57.0
 119   17:30   47.4    70   10.6   336     17.1    840     0.00      57     56.9
 119   17:40   47.6    68    7.0   320     10.7    840     0.00      68     56.6
 119   17:50   48.4    65    3.4   305      5.9    840     0.00     151     56.3
 119   18:00   50.0    59    2.1   249      3.7    841     0.00     144     56.0
 119   18:10   49.5    60    2.6   114      5.6    841     0.00      33     55.9
 119   18:20  999.0   999  999.0   999    999.0    999    999.00     999    999.0
 119   18:30   46.9    70    4.7   115      9.4    840     0.00      15     55.4
 119   18:40   46.5    69    5.1   127     10.4    840     0.00       9     55.2
 119   18:50   46.0    71    1.4   120      3.2    840     0.00       3     54.9
 119   19:00   45.9    69    2.0   162      4.2    840     0.00       1     54.6
 119   19:10   45.3    72    3.5   131      4.6    841     0.00       0     54.3
 119   19:20   43.8    77    4.6   130      6.4    841     0.00       0     54.0
 119   19:30   43.2    79    4.3   127      5.6    841     0.00       0     53.7
 119   19:40   42.3    81    1.0    96      4.0    841     0.00       0     53.4
 119   19:50   41.6    82    5.4   122      7.2    841     0.00       0     53.2
 119   20:00   41.7    82    5.8   137      7.2    841     0.00       0     52.9
 119   20:10   41.6    82    5.1   150      6.7    841     0.00       0     52.6
 119   20:20   41.5    82    4.2   164      6.9    842     0.00       0     52.4
 119   20:30   41.7    81    3.4   204      5.8    842     0.00       0     52.1
 119   20:40   42.4    78    3.6   170      7.8    842     0.00       0     51.9
 119   20:50   42.3    79    2.8   126      5.7    842     0.00       0     51.8
 119   21:00   42.5    79    4.8   128      7.6    842     0.00       0     51.6
 119   21:10   42.1    81    4.3   114      5.7    842     0.00       0     51.5
 119   21:20   41.3    83    3.6    99      4.7    842     0.00       0     51.4
 119   21:30   40.8    83    3.9   119      4.7    842     0.00       0     51.2
 119   21:40   40.3    83    2.7   203      4.1    842     0.00       0     51.1
 119   21:50   40.0    82    2.5   176      4.6    842     0.00       0     50.9
 119   22:00   39.6    84    4.2   174      5.4    841     0.00       0     50.7
 119   22:10   39.1    86    4.3   162      5.8    841     0.00       0     50.5
 119   22:20   39.5    86    4.0   165      5.2    841     0.00       0     50.4
 119   22:30   39.9    84    4.1   169      5.4    841     0.00       0     50.2
 119   22:40   40.2    83    3.8   181      4.6    841     0.00       0     50.1
 119   22:50   40.3    83    4.3   168      7.1    842     0.00       0     50.0
 119   23:00   42.4    76    5.3   176      8.6    842     0.00       0     49.8
 119   23:10   42.1    76    1.9   167      3.8    842     0.00       0     49.7
 119   23:20   40.2    81    2.0   292      3.9    842     0.00       0     49.6
 119   23:30   38.9    84    0.7   258      2.1    842     0.00       0     49.5
 119   23:40   38.6    85    2.6   189      3.7    842     0.00       0     49.4
 119   23:50   38.3    85    3.2   161      3.7    842     0.00       0     49.3
 120    0:00   38.2    86    1.7   111      3.1    842     0.00       0     49.1
 120    0:10   37.9    86    2.8   100      3.8    842     0.00       0     49.0
 120    0:20   37.2    88    3.5   106      4.9    842     0.00       0     48.9
 120    0:30   36.4    88    1.6   200      3.4    842     0.00       0     48.7
 120    0:40   35.5    90    1.5   217      3.3    842     0.00       0     48.5
 120    0:50   35.3    89    1.5   234      4.0    842     0.00       0     48.4
 120    1:00   34.0    90    0.9   208      3.4    842     0.00       0     48.2
 120    1:10   33.8    90    2.7   231      3.9    841     0.00       0     48.0
 120    1:20   33.5    92    2.8   229      3.4    841     0.00       0     47.8
 120    1:30   33.8    91    2.9   210      4.1    842     0.00       0     47.6
 120    1:40   32.9    91    2.7   210      4.0    842     0.00       0     47.4
 120    1:50   32.3    91    1.2   206      2.8    841     0.00       0     47.2
 120    2:00   32.5    92    2.0   229      3.3    841     0.00       0     47.1
 120    2:10   32.8    92    2.1   247      3.1    841     0.00       0     46.9
 120    2:20   33.0    92    3.5   249      4.2    841     0.00       0     46.7
 120    2:30   31.7    91    3.0   163      5.1    841     0.00       0     46.5
 120    2:40   31.3    91    1.7    89      3.2    841     0.00       0     46.3
 120    2:50   31.3    91    2.0    91      3.1    841     0.00       0     46.1
 120    3:00   31.0    92    1.3    80      2.9    841     0.00       0     45.9
 120    3:10   30.7    92    1.8   290      3.4    842     0.00       0     45.8
 120    3:20   29.5    92    1.9   258      3.1    842     0.00       0     45.6
 120    3:30   28.9    92    1.7   196      2.6    842     0.00       0     45.4
 120    3:40   29.3    93    2.7   192      3.9    842     0.00       0     45.3
 120    3:50   31.0    93    3.0   185      3.9    842     0.00       0     45.1
 120    4:00   31.8    93    3.2   162      4.2    842     0.00       0     45.0
 120    4:10   33.0    93    3.6   179      5.2    841     0.00       0     44.9
 120    4:20   34.3    93    2.7   155      4.6    842     0.00       0     44.9
 120    4:30   34.9    91    1.5   211      3.3    842     0.00       0     44.9
 120    4:40   34.6    91    3.0   185      6.6    842     0.00       0     44.9
 120    4:50   33.1    91    3.4   356      5.9    842     0.00       1     44.9
 120    5:00   32.7    92    1.6   315      3.3    842     0.00       3     44.9
 120    5:10   32.7    92    0.7   308      3.2    842     0.00       7     44.9
 120    5:20   32.8    93    2.5    83      6.3    842     0.00      22     44.8
 120    5:30   33.0    93    1.0   112      2.3    842     0.00      34     44.8
 120    5:40   33.4    93    0.7   111      1.5    842     0.00      47     44.7
 120    5:50   34.0    93    0.1   111      1.1    842     0.00      61     44.7
 120    6:00   34.6    93    0.0   111      0.5    842     0.00      65     44.7
 120    6:10   35.3    93    0.3   111      1.1    841     0.00     106     44.7
 120    6:20   36.2    92    0.4   111      1.3    842     0.00     141     44.7
 120    6:30   37.4    90    0.8   106      2.3    842     0.00     169     44.7
 120    6:40   37.7    87    0.8   111      2.2    842     0.00     136     44.8
 120    6:50   38.3    86    1.1   105      3.1    842     0.00     175     44.9
 120    7:00   39.4    84    1.2    81      2.9    842     0.00     258     45.0
 120    7:10   40.7    81    1.6    92      3.0    842     0.00     286     45.1
 120    7:20   43.7    76    1.0   123      3.4    842     0.00     524     45.3
 120    7:30   46.0    70    3.2   168      5.8    842     0.00     503     45.7
 120    7:40   46.4    69    1.3    98      3.4    842     0.00     277     46.1
 120    7:50   46.9    68    3.1    55      5.6    842     0.00     374     46.7
 120    8:00   48.2    65    3.6   108      5.9    842     0.00     481     47.1
 120    8:10   50.3    58    4.1   188     10.3    841     0.00     546     47.6
 120    8:20   52.5    50    6.0   217     10.6    842     0.00     641     48.1
 120    8:30   53.4    47    5.5   211      9.3    842     0.00     732     48.8
 120    8:40   53.4    46    4.8   228      9.0    842     0.00     608     49.4
 120    8:50   53.4    46    6.1   209     15.2    842     0.00     606     50.2
 120    9:00   52.4    46    6.2   194     10.8    842     0.00     314     51.0
 120    9:10   52.1    46    5.5   203     13.8    842     0.00     308     51.7
 120    9:20   52.9    44    6.0   216     12.8    842     0.00     611     52.2
 120    9:30   53.6    38    7.6   273     14.2    842     0.00     525     52.6
 120    9:40   52.7    41    8.6   260     13.0    842     0.00     274     53.1
 120    9:50   52.4    39    6.9   267     12.2    842     0.00     291     53.5
 120   10:00   53.3    38    6.7   269     13.7    842     0.00     452     53.8
 120   10:10   53.2    39    7.3   258     13.1    842     0.00     380     54.0
 120   10:20   54.3    40    6.7   230     12.6    842     0.00     698     54.2
 120   10:30   53.8    35    8.1   272     13.7    841     0.00     378     54.6
 120   10:40   54.8    33    4.3   247     10.7    841     0.00     998     55.0
 120   10:50   55.8    32    7.9   271     18.1    841     0.00     953     55.5
 120   11:00   56.2    30    8.3   274     15.8    841     0.00     935     56.2
 120   11:10   56.4    31    5.7   236     14.7    841     0.00     976     57.2
 120   11:20   56.6    31    8.6   285     14.6    841     0.00     631     58.1
 120   11:30   55.3    31    7.6   278     13.4    841     0.00     459     58.7
 120   11:40   55.5    31    5.8   272     11.2    841     0.00     757     59.2
 120   11:50   57.0    30    7.4   260     17.9    841     0.00     969     59.6
 120   12:00   57.8    29   11.0   282     16.7    840     0.00     957     60.0
 120   12:10   57.4    29   10.1   295     16.2    840     0.00     842     60.6
 120   12:20   56.9    29   11.3   284     18.9    840     0.00     923     61.2
 120   12:30   57.0    29   10.5   278     19.4    840     0.00     722     61.8
 120   12:40   57.1    29    8.7   304     14.2    840     0.00     751     62.3
 120   12:50   57.6    28   10.6   293     18.6    840     0.00     571     62.7
 120   13:00   56.2    29    9.8   282     16.1    840     0.00     296     63.1
 120   13:10   56.2    29    4.1   250      9.0    840     0.00     381     63.2
 120   13:20   56.4    29    6.2   273     13.5    840     0.00     392     63.2
 120   13:30   56.4    28    7.2   276     10.9    840     0.00     336     63.2
 120   13:40   56.3    28    5.3   270     10.8    839     0.00     216     63.2
 120   13:50   56.2    30    9.9   283     22.8    839     0.00     224     63.1
 120   14:00   55.5    34   15.8   261     26.8    839     0.00     283     62.9
 120   14:10   54.1    35   10.1   262     23.2    839     0.00     288     62.7
 120   14:20   54.7    34   12.7   256     21.0    839     0.00     308     62.4
 120   14:30   55.6    34    8.7   224     14.7    838     0.00     477     62.2
 120   14:40   56.1    34    7.8   207     14.2    839     0.00     764     62.1
 120   14:50   57.9    32    6.1   180     11.3    838     0.00     710     62.2
 120   15:00   58.1    31    8.4   161     15.7    838     0.00     712     62.4
 120   15:10   58.9    30    7.2   176     13.6    838     0.00     528     62.6
 120   15:20   59.0    28    9.3   203     18.1    838     0.00     641     62.6
 120   15:30   58.9    22   11.0   283     18.6    838     0.00     634     62.7
 120   15:40   59.2    22   10.8   259     18.0    838     0.00     365     62.8
 120   15:50   58.4    22   11.1   277     19.2    838     0.00     133     62.8
 120   16:00   57.2    23    7.6   266     16.2    838     0.00     169     62.8
 120   16:10   57.2    20   10.2   273     18.0    837     0.00     187     62.7
 120   16:20   56.8    20    8.6   270     13.7    838     0.00     140     62.6

Return to Carson Sink graphs page.


Western Regional Climate Center,wrcc@dri.edu